sensor_id;sensor_type;location;lat;lon;timestamp;temperature;humidity
75786;DHT22;64402;44.708;37.644;2023-06-14T00:02:13;20.22;82.95
75786;DHT22;64402;44.708;37.644;2023-06-14T00:04:40;20.29;82.79
75786;DHT22;64402;44.708;37.644;2023-06-14T00:07:07;20.30;82.91
75786;DHT22;64402;44.708;37.644;2023-06-14T00:09:34;20.32;82.71
75786;DHT22;64402;44.708;37.644;2023-06-14T00:12:01;20.31;82.92
75786;DHT22;64402;44.708;37.644;2023-06-14T00:14:27;20.28;82.99
75786;DHT22;64402;44.708;37.644;2023-06-14T00:16:53;20.28;83.07
75786;DHT22;64402;44.708;37.644;2023-06-14T00:19:25;20.25;83.29
75786;DHT22;64402;44.708;37.644;2023-06-14T00:21:51;20.19;83.46
75786;DHT22;64402;44.708;37.644;2023-06-14T00:24:19;20.20;83.78
75786;DHT22;64402;44.708;37.644;2023-06-14T00:26:45;20.16;83.55
75786;DHT22;64402;44.708;37.644;2023-06-14T00:29:11;20.13;84.06
75786;DHT22;64402;44.708;37.644;2023-06-14T00:31:37;20.00;84.06
75786;DHT22;64402;44.708;37.644;2023-06-14T00:34:03;19.98;84.00
75786;DHT22;64402;44.708;37.644;2023-06-14T00:36:29;19.96;83.99
75786;DHT22;64402;44.708;37.644;2023-06-14T00:38:55;19.92;84.42
75786;DHT22;64402;44.708;37.644;2023-06-14T00:41:21;19.88;84.70
75786;DHT22;64402;44.708;37.644;2023-06-14T00:43:47;19.85;84.66
75786;DHT22;64402;44.708;37.644;2023-06-14T00:46:14;19.81;85.03
75786;DHT22;64402;44.708;37.644;2023-06-14T00:48:40;19.71;85.36
75786;DHT22;64402;44.708;37.644;2023-06-14T00:51:07;19.68;85.45
75786;DHT22;64402;44.708;37.644;2023-06-14T00:53:33;19.63;85.65
75786;DHT22;64402;44.708;37.644;2023-06-14T00:56:05;19.61;85.89
75786;DHT22;64402;44.708;37.644;2023-06-14T00:58:32;19.61;85.84
75786;DHT22;64402;44.708;37.644;2023-06-14T01:00:58;19.55;86.03
75786;DHT22;64402;44.708;37.644;2023-06-14T01:03:24;19.51;86.18
75786;DHT22;64402;44.708;37.644;2023-06-14T01:05:56;19.52;86.09
75786;DHT22;64402;44.708;37.644;2023-06-14T01:08:59;19.59;85.88
75786;DHT22;64402;44.708;37.644;2023-06-14T01:11:28;19.67;85.38
75786;DHT22;64402;44.708;37.644;2023-06-14T01:13:56;19.75;84.77
75786;DHT22;64402;44.708;37.644;2023-06-14T01:16:26;19.82;84.19
75786;DHT22;64402;44.708;37.644;2023-06-14T01:18:53;19.85;84.14
75786;DHT22;64402;44.708;37.644;2023-06-14T01:21:25;19.88;84.00
75786;DHT22;64402;44.708;37.644;2023-06-14T01:23:54;19.94;84.10
75786;DHT22;64402;44.708;37.644;2023-06-14T01:26:21;19.96;84.39
75786;DHT22;64402;44.708;37.644;2023-06-14T01:28:48;20.01;84.23
75786;DHT22;64402;44.708;37.644;2023-06-14T01:31:20;20.05;84.19
75786;DHT22;64402;44.708;37.644;2023-06-14T01:33:50;20.11;83.99
75786;DHT22;64402;44.708;37.644;2023-06-14T01:36:20;20.15;83.57
75786;DHT22;64402;44.708;37.644;2023-06-14T01:38:50;20.15;83.51
75786;DHT22;64402;44.708;37.644;2023-06-14T01:41:18;20.09;84.13
75786;DHT22;64402;44.708;37.644;2023-06-14T01:43:47;20.03;84.33
75786;DHT22;64402;44.708;37.644;2023-06-14T01:46:15;20.02;84.40
75786;DHT22;64402;44.708;37.644;2023-06-14T01:48:42;19.96;84.79
75786;DHT22;64402;44.708;37.644;2023-06-14T01:51:08;19.91;85.07
75786;DHT22;64402;44.708;37.644;2023-06-14T01:53:34;19.84;85.29
75786;DHT22;64402;44.708;37.644;2023-06-14T01:56:00;19.76;85.37
75786;DHT22;64402;44.708;37.644;2023-06-14T01:58:27;19.72;85.39
75786;DHT22;64402;44.708;37.644;2023-06-14T02:00:53;19.71;85.57
75786;DHT22;64402;44.708;37.644;2023-06-14T02:03:21;19.71;85.60
75786;DHT22;64402;44.708;37.644;2023-06-14T02:05:47;19.66;85.32
75786;DHT22;64402;44.708;37.644;2023-06-14T02:08:13;19.48;85.58
75786;DHT22;64402;44.708;37.644;2023-06-14T02:10:39;19.48;85.42
75786;DHT22;64402;44.708;37.644;2023-06-14T02:13:05;19.53;85.42
75786;DHT22;64402;44.708;37.644;2023-06-14T02:15:32;19.54;85.38
75786;DHT22;64402;44.708;37.644;2023-06-14T02:18:02;19.55;85.39
75786;DHT22;64402;44.708;37.644;2023-06-14T02:20:28;19.54;85.04
75786;DHT22;64402;44.708;37.644;2023-06-14T02:22:55;19.55;85.18
75786;DHT22;64402;44.708;37.644;2023-06-14T02:25:21;19.58;85.12
75786;DHT22;64402;44.708;37.644;2023-06-14T02:27:47;19.60;85.13
75786;DHT22;64402;44.708;37.644;2023-06-14T02:30:13;19.62;85.14
75786;DHT22;64402;44.708;37.644;2023-06-14T02:32:41;19.69;85.14
75786;DHT22;64402;44.708;37.644;2023-06-14T02:35:08;19.70;85.19
75786;DHT22;64402;44.708;37.644;2023-06-14T02:37:35;19.75;85.07
75786;DHT22;64402;44.708;37.644;2023-06-14T02:40:01;19.76;85.10
75786;DHT22;64402;44.708;37.644;2023-06-14T02:42:27;19.76;85.32
75786;DHT22;64402;44.708;37.644;2023-06-14T02:44:53;19.84;85.06
75786;DHT22;64402;44.708;37.644;2023-06-14T02:47:20;19.92;84.78
75786;DHT22;64402;44.708;37.644;2023-06-14T02:49:46;20.01;84.29
75786;DHT22;64402;44.708;37.644;2023-06-14T02:52:12;20.07;83.61
75786;DHT22;64402;44.708;37.644;2023-06-14T02:54:38;20.09;83.43
75786;DHT22;64402;44.708;37.644;2023-06-14T02:57:06;20.13;83.37
75786;DHT22;64402;44.708;37.644;2023-06-14T02:59:34;20.27;83.18
75786;DHT22;64402;44.708;37.644;2023-06-14T03:02:01;20.41;82.82
75786;DHT22;64402;44.708;37.644;2023-06-14T03:04:27;20.57;82.30
75786;DHT22;64402;44.708;37.644;2023-06-14T03:06:54;20.74;81.62
75786;DHT22;64402;44.708;37.644;2023-06-14T03:09:22;20.85;81.34
75786;DHT22;64402;44.708;37.644;2023-06-14T03:11:48;20.90;80.99
75786;DHT22;64402;44.708;37.644;2023-06-14T03:14:14;21.05;80.58
75786;DHT22;64402;44.708;37.644;2023-06-14T03:16:40;21.24;80.02
75786;DHT22;64402;44.708;37.644;2023-06-14T03:19:07;21.46;79.22
75786;DHT22;64402;44.708;37.644;2023-06-14T03:21:33;21.68;78.56
75786;DHT22;64402;44.708;37.644;2023-06-14T03:24:00;21.80;78.35
75786;DHT22;64402;44.708;37.644;2023-06-14T03:26:26;21.84;78.32
75786;DHT22;64402;44.708;37.644;2023-06-14T03:28:53;21.93;78.27
75786;DHT22;64402;44.708;37.644;2023-06-14T03:31:19;21.98;78.30
75786;DHT22;64402;44.708;37.644;2023-06-14T03:33:45;22.11;77.95
75786;DHT22;64402;44.708;37.644;2023-06-14T03:36:11;22.19;78.02
75786;DHT22;64402;44.708;37.644;2023-06-14T03:38:37;22.25;78.26
75786;DHT22;64402;44.708;37.644;2023-06-14T03:41:03;22.35;78.05
75786;DHT22;64402;44.708;37.644;2023-06-14T03:43:29;22.39;78.11
75786;DHT22;64402;44.708;37.644;2023-06-14T03:45:56;22.40;78.20
75786;DHT22;64402;44.708;37.644;2023-06-14T03:48:22;22.41;78.11
75786;DHT22;64402;44.708;37.644;2023-06-14T03:50:48;22.39;78.42
75786;DHT22;64402;44.708;37.644;2023-06-14T03:53:14;22.38;78.35
75786;DHT22;64402;44.708;37.644;2023-06-14T03:55:40;22.37;78.27
75786;DHT22;64402;44.708;37.644;2023-06-14T03:58:07;22.28;78.95
75786;DHT22;64402;44.708;37.644;2023-06-14T04:00:33;22.27;79.33
75786;DHT22;64402;44.708;37.644;2023-06-14T04:02:59;22.33;79.56
75786;DHT22;64402;44.708;37.644;2023-06-14T04:05:25;22.46;79.92
75786;DHT22;64402;44.708;37.644;2023-06-14T04:07:54;22.65;78.71
75786;DHT22;64402;44.708;37.644;2023-06-14T04:10:21;22.87;77.77
75786;DHT22;64402;44.708;37.644;2023-06-14T04:12:48;23.00;76.94
75786;DHT22;64402;44.708;37.644;2023-06-14T04:15:14;22.98;77.14
75786;DHT22;64402;44.708;37.644;2023-06-14T04:17:41;22.99;77.40
75786;DHT22;64402;44.708;37.644;2023-06-14T04:20:07;22.99;77.59
75786;DHT22;64402;44.708;37.644;2023-06-14T04:22:35;22.96;77.76
75786;DHT22;64402;44.708;37.644;2023-06-14T04:25:02;22.97;77.73
75786;DHT22;64402;44.708;37.644;2023-06-14T04:27:28;23.03;77.53
75786;DHT22;64402;44.708;37.644;2023-06-14T04:29:56;23.13;77.41
75786;DHT22;64402;44.708;37.644;2023-06-14T04:32:24;23.12;77.27
75786;DHT22;64402;44.708;37.644;2023-06-14T04:34:56;23.07;77.24
75786;DHT22;64402;44.708;37.644;2023-06-14T04:37:23;23.02;77.67
75786;DHT22;64402;44.708;37.644;2023-06-14T04:39:51;22.98;78.27
75786;DHT22;64402;44.708;37.644;2023-06-14T04:42:17;22.94;77.60
75786;DHT22;64402;44.708;37.644;2023-06-14T04:44:46;22.91;78.00
75786;DHT22;64402;44.708;37.644;2023-06-14T04:47:13;22.92;78.23
75786;DHT22;64402;44.708;37.644;2023-06-14T04:49:41;23.02;78.19
75786;DHT22;64402;44.708;37.644;2023-06-14T04:52:07;23.25;78.09
75786;DHT22;64402;44.708;37.644;2023-06-14T04:54:41;23.56;77.64
75786;DHT22;64402;44.708;37.644;2023-06-14T04:57:10;23.76;77.15
75786;DHT22;64402;44.708;37.644;2023-06-14T04:59:40;23.89;76.75
75786;DHT22;64402;44.708;37.644;2023-06-14T05:02:06;23.61;77.34
75786;DHT22;64402;44.708;37.644;2023-06-14T05:04:32;23.58;77.92
75786;DHT22;64402;44.708;37.644;2023-06-14T05:06:58;23.55;77.91
75786;DHT22;64402;44.708;37.644;2023-06-14T05:09:25;23.67;77.44
75786;DHT22;64402;44.708;37.644;2023-06-14T05:11:51;23.75;76.79
75786;DHT22;64402;44.708;37.644;2023-06-14T05:14:17;23.95;76.31
75786;DHT22;64402;44.708;37.644;2023-06-14T05:16:44;24.14;75.27
75786;DHT22;64402;44.708;37.644;2023-06-14T05:19:10;23.85;75.21
75786;DHT22;64402;44.708;37.644;2023-06-14T05:21:36;23.80;75.78
75786;DHT22;64402;44.708;37.644;2023-06-14T05:24:03;23.67;76.64
75786;DHT22;64402;44.708;37.644;2023-06-14T05:26:29;23.65;76.66
75786;DHT22;64402;44.708;37.644;2023-06-14T05:28:56;23.70;76.86
75786;DHT22;64402;44.708;37.644;2023-06-14T05:31:23;23.87;76.08
75786;DHT22;64402;44.708;37.644;2023-06-14T05:33:50;24.03;75.38
75786;DHT22;64402;44.708;37.644;2023-06-14T05:36:16;24.17;75.13
75786;DHT22;64402;44.708;37.644;2023-06-14T05:38:42;24.05;74.95
75786;DHT22;64402;44.708;37.644;2023-06-14T05:41:08;23.88;75.21
75786;DHT22;64402;44.708;37.644;2023-06-14T05:43:34;23.66;76.37
75786;DHT22;64402;44.708;37.644;2023-06-14T05:46:00;23.64;76.22
75786;DHT22;64402;44.708;37.644;2023-06-14T05:48:26;23.74;76.26
75786;DHT22;64402;44.708;37.644;2023-06-14T05:50:52;24.15;74.97
75786;DHT22;64402;44.708;37.644;2023-06-14T05:53:19;24.35;73.11
75786;DHT22;64402;44.708;37.644;2023-06-14T05:55:45;24.58;71.88
75786;DHT22;64402;44.708;37.644;2023-06-14T05:58:11;24.53;72.45
75786;DHT22;64402;44.708;37.644;2023-06-14T06:00:39;24.68;72.54
75786;DHT22;64402;44.708;37.644;2023-06-14T06:03:06;24.58;71.48
75786;DHT22;64402;44.708;37.644;2023-06-14T06:05:34;24.60;71.73
75786;DHT22;64402;44.708;37.644;2023-06-14T06:08:00;24.73;71.70
75786;DHT22;64402;44.708;37.644;2023-06-14T06:10:26;24.66;71.52
75786;DHT22;64402;44.708;37.644;2023-06-14T06:12:53;24.58;72.28
75786;DHT22;64402;44.708;37.644;2023-06-14T06:15:20;24.68;71.28
75786;DHT22;64402;44.708;37.644;2023-06-14T06:17:46;24.99;70.67
75786;DHT22;64402;44.708;37.644;2023-06-14T06:20:12;24.94;70.55
75786;DHT22;64402;44.708;37.644;2023-06-14T06:22:38;24.98;70.52
75786;DHT22;64402;44.708;37.644;2023-06-14T06:25:05;25.12;69.45
75786;DHT22;64402;44.708;37.644;2023-06-14T06:27:32;25.01;69.02
75786;DHT22;64402;44.708;37.644;2023-06-14T06:29:58;25.00;69.63
75786;DHT22;64402;44.708;37.644;2023-06-14T06:32:24;25.18;69.39
75786;DHT22;64402;44.708;37.644;2023-06-14T06:34:50;25.22;68.84
75786;DHT22;64402;44.708;37.644;2023-06-14T06:37:17;25.15;69.33
75786;DHT22;64402;44.708;37.644;2023-06-14T06:39:43;25.05;68.24
75786;DHT22;64402;44.708;37.644;2023-06-14T06:42:09;25.14;67.99
75786;DHT22;64402;44.708;37.644;2023-06-14T06:44:36;25.39;67.33
75786;DHT22;64402;44.708;37.644;2023-06-14T06:47:02;25.73;67.09
75786;DHT22;64402;44.708;37.644;2023-06-14T06:49:28;25.42;67.18
75786;DHT22;64402;44.708;37.644;2023-06-14T06:52:03;25.63;67.05
75786;DHT22;64402;44.708;37.644;2023-06-14T06:54:29;25.98;65.61
75786;DHT22;64402;44.708;37.644;2023-06-14T06:56:55;26.13;65.66
75786;DHT22;64402;44.708;37.644;2023-06-14T06:59:21;26.30;64.68
75786;DHT22;64402;44.708;37.644;2023-06-14T07:01:48;26.34;63.89
75786;DHT22;64402;44.708;37.644;2023-06-14T07:04:14;26.38;64.15
75786;DHT22;64402;44.708;37.644;2023-06-14T07:06:41;26.53;63.56
75786;DHT22;64402;44.708;37.644;2023-06-14T07:09:07;26.65;63.02
75786;DHT22;64402;44.708;37.644;2023-06-14T07:11:39;26.83;62.02
75786;DHT22;64402;44.708;37.644;2023-06-14T07:14:05;26.84;62.25
75786;DHT22;64402;44.708;37.644;2023-06-14T07:16:32;26.95;61.50
75786;DHT22;64402;44.708;37.644;2023-06-14T07:18:58;26.98;61.82
75786;DHT22;64402;44.708;37.644;2023-06-14T07:21:24;27.24;60.64
75786;DHT22;64402;44.708;37.644;2023-06-14T07:23:53;27.46;60.60
75786;DHT22;64402;44.708;37.644;2023-06-14T07:26:20;27.34;59.28
75786;DHT22;64402;44.708;37.644;2023-06-14T07:28:47;27.47;59.03
75786;DHT22;64402;44.708;37.644;2023-06-14T07:31:17;27.67;58.24
75786;DHT22;64402;44.708;37.644;2023-06-14T07:33:45;27.94;57.61
75786;DHT22;64402;44.708;37.644;2023-06-14T07:36:11;28.11;57.51
75786;DHT22;64402;44.708;37.644;2023-06-14T07:38:37;27.96;57.88
75786;DHT22;64402;44.708;37.644;2023-06-14T07:41:06;27.58;59.00
75786;DHT22;64402;44.708;37.644;2023-06-14T07:43:32;27.24;59.38
75786;DHT22;64402;44.708;37.644;2023-06-14T07:45:58;27.06;59.84
75786;DHT22;64402;44.708;37.644;2023-06-14T07:48:24;26.96;59.95
75786;DHT22;64402;44.708;37.644;2023-06-14T07:50:50;27.07;58.64
75786;DHT22;64402;44.708;37.644;2023-06-14T07:53:16;27.00;59.30
75786;DHT22;64402;44.708;37.644;2023-06-14T07:55:42;27.25;58.85
75786;DHT22;64402;44.708;37.644;2023-06-14T07:58:09;27.25;58.98
75786;DHT22;64402;44.708;37.644;2023-06-14T08:00:36;27.30;57.25
75786;DHT22;64402;44.708;37.644;2023-06-14T08:03:02;27.08;58.72
75786;DHT22;64402;44.708;37.644;2023-06-14T08:05:28;26.72;58.61
75786;DHT22;64402;44.708;37.644;2023-06-14T08:07:55;26.67;59.82
75786;DHT22;64402;44.708;37.644;2023-06-14T08:10:22;26.99;58.88
75786;DHT22;64402;44.708;37.644;2023-06-14T08:12:48;26.83;59.06
75786;DHT22;64402;44.708;37.644;2023-06-14T08:15:15;26.77;59.28
75786;DHT22;64402;44.708;37.644;2023-06-14T08:17:45;26.99;58.13
75786;DHT22;64402;44.708;37.644;2023-06-14T08:20:12;27.51;58.54
75786;DHT22;64402;44.708;37.644;2023-06-14T08:22:39;27.68;57.05
75786;DHT22;64402;44.708;37.644;2023-06-14T08:25:08;27.28;56.35
75786;DHT22;64402;44.708;37.644;2023-06-14T08:27:35;27.34;58.70
75786;DHT22;64402;44.708;37.644;2023-06-14T08:30:01;27.65;56.98
75786;DHT22;64402;44.708;37.644;2023-06-14T08:32:28;27.57;56.15
75786;DHT22;64402;44.708;37.644;2023-06-14T08:34:55;27.42;56.80
75786;DHT22;64402;44.708;37.644;2023-06-14T08:37:24;27.38;55.94
75786;DHT22;64402;44.708;37.644;2023-06-14T08:39:50;27.12;57.64
75786;DHT22;64402;44.708;37.644;2023-06-14T08:42:19;26.83;57.87
75786;DHT22;64402;44.708;37.644;2023-06-14T08:44:47;26.70;58.53
75786;DHT22;64402;44.708;37.644;2023-06-14T08:47:14;26.76;58.15
75786;DHT22;64402;44.708;37.644;2023-06-14T08:49:46;26.78;57.25
75786;DHT22;64402;44.708;37.644;2023-06-14T08:52:16;26.86;57.02
75786;DHT22;64402;44.708;37.644;2023-06-14T08:54:45;27.38;56.22
75786;DHT22;64402;44.708;37.644;2023-06-14T08:57:14;27.90;54.81
75786;DHT22;64402;44.708;37.644;2023-06-14T08:59:47;28.05;52.92
75786;DHT22;64402;44.708;37.644;2023-06-14T09:02:15;28.20;53.10
75786;DHT22;64402;44.708;37.644;2023-06-14T09:04:44;28.11;53.87
75786;DHT22;64402;44.708;37.644;2023-06-14T09:07:11;28.45;53.36
75786;DHT22;64402;44.708;37.644;2023-06-14T09:09:39;28.47;51.85
75786;DHT22;64402;44.708;37.644;2023-06-14T09:12:10;28.98;51.48
75786;DHT22;64402;44.708;37.644;2023-06-14T09:14:36;29.21;50.00
75786;DHT22;64402;44.708;37.644;2023-06-14T09:17:05;29.39;50.27
75786;DHT22;64402;44.708;37.644;2023-06-14T09:19:32;28.92;50.40
75786;DHT22;64402;44.708;37.644;2023-06-14T09:21:59;28.84;50.57
75786;DHT22;64402;44.708;37.644;2023-06-14T09:24:26;28.99;49.92
75786;DHT22;64402;44.708;37.644;2023-06-14T09:26:52;29.72;47.49
75786;DHT22;64402;44.708;37.644;2023-06-14T09:29:18;31.07;43.93
75786;DHT22;64402;44.708;37.644;2023-06-14T09:31:48;32.96;39.78
75786;DHT22;64402;44.708;37.644;2023-06-14T09:34:16;33.48;37.97
75786;DHT22;64402;44.708;37.644;2023-06-14T09:36:43;33.94;37.04
75786;DHT22;64402;44.708;37.644;2023-06-14T09:39:09;33.88;37.82
75786;DHT22;64402;44.708;37.644;2023-06-14T09:41:38;34.09;36.75
75786;DHT22;64402;44.708;37.644;2023-06-14T09:44:06;34.71;36.12
75786;DHT22;64402;44.708;37.644;2023-06-14T09:46:33;34.76;35.15
75786;DHT22;64402;44.708;37.644;2023-06-14T09:49:00;35.41;33.89
75786;DHT22;64402;44.708;37.644;2023-06-14T09:51:27;35.54;33.89
75786;DHT22;64402;44.708;37.644;2023-06-14T09:53:59;36.66;31.01
75786;DHT22;64402;44.708;37.644;2023-06-14T09:56:28;36.87;30.08
75786;DHT22;64402;44.708;37.644;2023-06-14T09:58:59;36.89;31.05
75786;DHT22;64402;44.708;37.644;2023-06-14T10:01:26;36.62;31.25
75786;DHT22;64402;44.708;37.644;2023-06-14T10:04:05;36.46;31.55
75786;DHT22;64402;44.708;37.644;2023-06-14T10:06:45;36.54;31.48
75786;DHT22;64402;44.708;37.644;2023-06-14T10:09:12;36.97;30.89
75786;DHT22;64402;44.708;37.644;2023-06-14T10:11:40;36.66;32.44
75786;DHT22;64402;44.708;37.644;2023-06-14T10:14:10;36.89;31.14
75786;DHT22;64402;44.708;37.644;2023-06-14T10:17:00;36.82;30.47
75786;DHT22;64402;44.708;37.644;2023-06-14T10:19:34;36.92;27.94
75786;DHT22;64402;44.708;37.644;2023-06-14T10:22:22;37.90;27.28
75786;DHT22;64402;44.708;37.644;2023-06-14T10:24:50;37.89;28.31
75786;DHT22;64402;44.708;37.644;2023-06-14T10:27:17;39.07;26.04
75786;DHT22;64402;44.708;37.644;2023-06-14T10:32:25;39.12;25.18
75786;DHT22;64402;44.708;37.644;2023-06-14T10:34:55;39.98;24.99
75786;DHT22;64402;44.708;37.644;2023-06-14T10:37:22;40.89;23.33
75786;DHT22;64402;44.708;37.644;2023-06-14T10:39:48;40.86;22.47
75786;DHT22;64402;44.708;37.644;2023-06-14T10:42:15;38.90;25.24
75786;DHT22;64402;44.708;37.644;2023-06-14T10:44:41;38.37;25.80
75786;DHT22;64402;44.708;37.644;2023-06-14T10:47:23;39.81;23.85
75786;DHT22;64402;44.708;37.644;2023-06-14T10:49:55;39.88;24.96
75786;DHT22;64402;44.708;37.644;2023-06-14T10:52:23;41.00;22.50
75786;DHT22;64402;44.708;37.644;2023-06-14T10:55:02;41.83;21.15
75786;DHT22;64402;44.708;37.644;2023-06-14T10:57:36;41.52;21.11
75786;DHT22;64402;44.708;37.644;2023-06-14T11:00:03;41.04;22.70
75786;DHT22;64402;44.708;37.644;2023-06-14T11:05:49;41.66;21.17
75786;DHT22;64402;44.708;37.644;2023-06-14T11:11:13;40.44;22.90
75786;DHT22;64402;44.708;37.644;2023-06-14T11:13:44;40.27;23.11
75786;DHT22;64402;44.708;37.644;2023-06-14T11:16:13;39.62;24.19
75786;DHT22;64402;44.708;37.644;2023-06-14T11:18:39;40.11;24.60
75786;DHT22;64402;44.708;37.644;2023-06-14T11:21:05;40.12;24.20
75786;DHT22;64402;44.708;37.644;2023-06-14T11:23:31;39.47;23.56
75786;DHT22;64402;44.708;37.644;2023-06-14T11:25:57;38.16;25.65
75786;DHT22;64402;44.708;37.644;2023-06-14T11:28:23;38.59;26.39
75786;DHT22;64402;44.708;37.644;2023-06-14T11:31:03;37.54;27.37
75786;DHT22;64402;44.708;37.644;2023-06-14T11:33:29;36.93;28.27
75786;DHT22;64402;44.708;37.644;2023-06-14T11:35:56;36.11;29.76
75786;DHT22;64402;44.708;37.644;2023-06-14T11:38:23;36.42;29.16
75786;DHT22;64402;44.708;37.644;2023-06-14T11:40:49;36.02;30.86
75786;DHT22;64402;44.708;37.644;2023-06-14T11:43:15;36.29;30.06
75786;DHT22;64402;44.708;37.644;2023-06-14T11:45:42;35.98;30.71
75786;DHT22;64402;44.708;37.644;2023-06-14T11:48:08;35.53;32.02
75786;DHT22;64402;44.708;37.644;2023-06-14T11:50:37;35.14;32.57
75786;DHT22;64402;44.708;37.644;2023-06-14T11:53:04;34.52;33.99
75786;DHT22;64402;44.708;37.644;2023-06-14T11:55:39;33.52;36.53
75786;DHT22;64402;44.708;37.644;2023-06-14T11:58:06;33.77;36.08
75786;DHT22;64402;44.708;37.644;2023-06-14T12:00:32;33.51;37.05
75786;DHT22;64402;44.708;37.644;2023-06-14T12:02:58;33.95;36.15
75786;DHT22;64402;44.708;37.644;2023-06-14T12:05:25;35.58;33.51
75786;DHT22;64402;44.708;37.644;2023-06-14T12:08:03;36.81;29.94
75786;DHT22;64402;44.708;37.644;2023-06-14T12:10:39;37.37;29.87
75786;DHT22;64402;44.708;37.644;2023-06-14T12:13:07;38.21;27.94
75786;DHT22;64402;44.708;37.644;2023-06-14T12:15:33;38.99;25.93
75786;DHT22;64402;44.708;37.644;2023-06-14T12:18:00;39.71;25.04
75786;DHT22;64402;44.708;37.644;2023-06-14T12:20:30;37.89;28.55
75786;DHT22;64402;44.708;37.644;2023-06-14T12:22:59;36.13;32.00
75786;DHT22;64402;44.708;37.644;2023-06-14T12:25:37;35.50;33.50
75786;DHT22;64402;44.708;37.644;2023-06-14T12:28:09;33.99;36.87
75786;DHT22;64402;44.708;37.644;2023-06-14T12:30:37;36.26;32.23
75786;DHT22;64402;44.708;37.644;2023-06-14T12:33:03;37.95;29.10
75786;DHT22;64402;44.708;37.644;2023-06-14T12:35:30;38.33;28.39
75786;DHT22;64402;44.708;37.644;2023-06-14T12:37:56;38.68;27.44
75786;DHT22;64402;44.708;37.644;2023-06-14T12:40:22;38.84;27.55
75786;DHT22;64402;44.708;37.644;2023-06-14T12:42:49;39.29;26.36
75786;DHT22;64402;44.708;37.644;2023-06-14T12:45:15;39.96;25.55
75786;DHT22;64402;44.708;37.644;2023-06-14T12:47:42;39.65;26.01
75786;DHT22;64402;44.708;37.644;2023-06-14T12:50:08;39.62;26.27
75786;DHT22;64402;44.708;37.644;2023-06-14T12:52:34;40.55;24.62
75786;DHT22;64402;44.708;37.644;2023-06-14T12:55:06;41.77;23.24
75786;DHT22;64402;44.708;37.644;2023-06-14T12:57:32;42.33;21.60
75786;DHT22;64402;44.708;37.644;2023-06-14T13:00:00;43.22;20.31
75786;DHT22;64402;44.708;37.644;2023-06-14T13:02:27;44.32;19.77
75786;DHT22;64402;44.708;37.644;2023-06-14T13:04:53;45.11;18.90
75786;DHT22;64402;44.708;37.644;2023-06-14T13:07:19;45.85;17.86
75786;DHT22;64402;44.708;37.644;2023-06-14T13:09:45;46.30;16.79
75786;DHT22;64402;44.708;37.644;2023-06-14T13:12:11;46.09;17.21
75786;DHT22;64402;44.708;37.644;2023-06-14T13:14:41;47.31;16.45
75786;DHT22;64402;44.708;37.644;2023-06-14T13:17:10;45.11;19.21
75786;DHT22;64402;44.708;37.644;2023-06-14T13:19:37;43.00;22.10
75786;DHT22;64402;44.708;37.644;2023-06-14T13:22:03;41.49;23.95
75786;DHT22;64402;44.708;37.644;2023-06-14T13:24:31;40.40;25.97
75786;DHT22;64402;44.708;37.644;2023-06-14T13:26:57;39.78;27.02
75786;DHT22;64402;44.708;37.644;2023-06-14T13:29:24;38.88;27.93
75786;DHT22;64402;44.708;37.644;2023-06-14T13:31:50;37.77;29.39
75786;DHT22;64402;44.708;37.644;2023-06-14T13:34:16;37.11;30.98
75786;DHT22;64402;44.708;37.644;2023-06-14T13:36:42;36.28;31.70
75786;DHT22;64402;44.708;37.644;2023-06-14T13:39:09;36.28;32.74
75786;DHT22;64402;44.708;37.644;2023-06-14T13:41:36;37.07;30.39
75786;DHT22;64402;44.708;37.644;2023-06-14T13:44:02;35.99;33.83
75786;DHT22;64402;44.708;37.644;2023-06-14T13:46:32;35.03;34.73
75786;DHT22;64402;44.708;37.644;2023-06-14T13:48:58;33.78;36.82
75786;DHT22;64402;44.708;37.644;2023-06-14T13:51:26;33.05;38.30
75786;DHT22;64402;44.708;37.644;2023-06-14T13:53:53;32.41;39.86
75786;DHT22;64402;44.708;37.644;2023-06-14T13:56:20;34.01;36.13
75786;DHT22;64402;44.708;37.644;2023-06-14T13:58:46;34.83;34.94
75786;DHT22;64402;44.708;37.644;2023-06-14T14:01:12;35.80;32.95
75786;DHT22;64402;44.708;37.644;2023-06-14T14:03:41;35.19;33.28
75786;DHT22;64402;44.708;37.644;2023-06-14T14:06:07;35.00;34.18
75786;DHT22;64402;44.708;37.644;2023-06-14T14:08:34;34.48;34.70
75786;DHT22;64402;44.708;37.644;2023-06-14T14:11:02;33.78;36.88
75786;DHT22;64402;44.708;37.644;2023-06-14T14:13:28;32.91;38.85
75786;DHT22;64402;44.708;37.644;2023-06-14T14:15:55;31.92;41.17
75786;DHT22;64402;44.708;37.644;2023-06-14T14:18:21;30.97;43.64
75786;DHT22;64402;44.708;37.644;2023-06-14T14:20:48;29.78;46.20
75786;DHT22;64402;44.708;37.644;2023-06-14T14:23:14;29.16;47.86
75786;DHT22;64402;44.708;37.644;2023-06-14T14:25:40;28.33;50.05
75786;DHT22;64402;44.708;37.644;2023-06-14T14:28:06;28.20;49.83
75786;DHT22;64402;44.708;37.644;2023-06-14T14:30:32;28.16;50.10
75786;DHT22;64402;44.708;37.644;2023-06-14T14:32:59;27.76;51.54
75786;DHT22;64402;44.708;37.644;2023-06-14T14:35:25;27.40;52.45
75786;DHT22;64402;44.708;37.644;2023-06-14T14:37:56;27.12;53.33
75786;DHT22;64402;44.708;37.644;2023-06-14T14:40:22;27.08;52.87
75786;DHT22;64402;44.708;37.644;2023-06-14T14:42:49;27.07;52.95
75786;DHT22;64402;44.708;37.644;2023-06-14T14:45:15;27.24;52.79
75786;DHT22;64402;44.708;37.644;2023-06-14T14:47:41;28.46;48.79
75786;DHT22;64402;44.708;37.644;2023-06-14T14:50:07;29.98;44.78
75786;DHT22;64402;44.708;37.644;2023-06-14T14:52:36;31.16;41.38
75786;DHT22;64402;44.708;37.644;2023-06-14T14:55:03;31.98;39.42
75786;DHT22;64402;44.708;37.644;2023-06-14T14:57:29;32.70;38.17
75786;DHT22;64402;44.708;37.644;2023-06-14T14:59:56;33.09;36.89
75786;DHT22;64402;44.708;37.644;2023-06-14T15:02:23;32.10;38.88
75786;DHT22;64402;44.708;37.644;2023-06-14T15:04:50;32.38;38.50
75786;DHT22;64402;44.708;37.644;2023-06-14T15:07:16;32.30;38.70
75786;DHT22;64402;44.708;37.644;2023-06-14T15:09:42;31.48;40.91
75786;DHT22;64402;44.708;37.644;2023-06-14T15:12:09;30.98;41.67
75786;DHT22;64402;44.708;37.644;2023-06-14T15:14:37;31.14;41.60
75786;DHT22;64402;44.708;37.644;2023-06-14T15:17:03;30.82;42.40
75786;DHT22;64402;44.708;37.644;2023-06-14T15:19:29;30.77;42.51
75786;DHT22;64402;44.708;37.644;2023-06-14T15:21:55;30.35;43.48
75786;DHT22;64402;44.708;37.644;2023-06-14T15:24:22;30.01;44.70
75786;DHT22;64402;44.708;37.644;2023-06-14T15:26:49;29.63;45.44